sensor_id;sensor_type;location;lat;lon;timestamp;temperature;humidity
7842;DHT22;3966;51.052;13.820;2023-07-13T00:01:50;21.90;99.90
7842;DHT22;3966;51.052;13.820;2023-07-13T00:04:18;21.90;99.90
7842;DHT22;3966;51.052;13.820;2023-07-13T00:06:45;21.90;99.90
7842;DHT22;3966;51.052;13.820;2023-07-13T00:09:15;21.80;99.90
7842;DHT22;3966;51.052;13.820;2023-07-13T00:11:42;21.70;99.90
7842;DHT22;3966;51.052;13.820;2023-07-13T00:14:08;21.80;99.90
7842;DHT22;3966;51.052;13.820;2023-07-13T00:16:36;21.80;99.90
7842;DHT22;3966;51.052;13.820;2023-07-13T00:19:02;21.70;99.90
7842;DHT22;3966;51.052;13.820;2023-07-13T00:21:28;21.70;99.90
7842;DHT22;3966;51.052;13.820;2023-07-13T00:23:53;21.70;99.90
7842;DHT22;3966;51.052;13.820;2023-07-13T00:26:19;21.80;99.90
7842;DHT22;3966;51.052;13.820;2023-07-13T00:28:45;21.70;99.90
7842;DHT22;3966;51.052;13.820;2023-07-13T00:31:12;21.70;99.90
7842;DHT22;3966;51.052;13.820;2023-07-13T00:33:38;21.80;99.90
7842;DHT22;3966;51.052;13.820;2023-07-13T00:36:06;21.80;99.90
7842;DHT22;3966;51.052;13.820;2023-07-13T00:38:32;21.80;99.90
7842;DHT22;3966;51.052;13.820;2023-07-13T00:40:58;21.70;99.90
7842;DHT22;3966;51.052;13.820;2023-07-13T00:43:27;21.70;99.90
7842;DHT22;3966;51.052;13.820;2023-07-13T00:48:21;21.40;99.90
7842;DHT22;3966;51.052;13.820;2023-07-13T00:50:52;21.20;99.90
7842;DHT22;3966;51.052;13.820;2023-07-13T00:53:19;21.00;99.90
7842;DHT22;3966;51.052;13.820;2023-07-13T00:55:47;20.90;99.90
7842;DHT22;3966;51.052;13.820;2023-07-13T00:58:14;20.80;99.90
7842;DHT22;3966;51.052;13.820;2023-07-13T01:00:40;20.80;99.90
7842;DHT22;3966;51.052;13.820;2023-07-13T01:03:07;20.80;99.90
7842;DHT22;3966;51.052;13.820;2023-07-13T01:05:34;20.70;99.90
7842;DHT22;3966;51.052;13.820;2023-07-13T01:08:01;20.60;99.90
7842;DHT22;3966;51.052;13.820;2023-07-13T01:10:28;20.50;99.90
7842;DHT22;3966;51.052;13.820;2023-07-13T01:12:54;20.40;99.90
7842;DHT22;3966;51.052;13.820;2023-07-13T01:15:39;20.30;99.90
7842;DHT22;3966;51.052;13.820;2023-07-13T01:18:09;20.20;99.90
7842;DHT22;3966;51.052;13.820;2023-07-13T01:23:06;20.10;99.90
7842;DHT22;3966;51.052;13.820;2023-07-13T01:25:32;20.00;99.90
7842;DHT22;3966;51.052;13.820;2023-07-13T01:27:59;19.80;99.90
7842;DHT22;3966;51.052;13.820;2023-07-13T01:30:24;19.60;99.90
7842;DHT22;3966;51.052;13.820;2023-07-13T01:32:50;19.60;99.90
7842;DHT22;3966;51.052;13.820;2023-07-13T01:35:16;19.60;99.90
7842;DHT22;3966;51.052;13.820;2023-07-13T01:37:42;19.60;99.90
7842;DHT22;3966;51.052;13.820;2023-07-13T01:40:11;19.60;99.90
7842;DHT22;3966;51.052;13.820;2023-07-13T01:42:38;19.40;99.90
7842;DHT22;3966;51.052;13.820;2023-07-13T01:45:04;19.40;99.90
7842;DHT22;3966;51.052;13.820;2023-07-13T01:47:30;19.40;99.90
7842;DHT22;3966;51.052;13.820;2023-07-13T01:49:57;19.40;99.90
7842;DHT22;3966;51.052;13.820;2023-07-13T01:52:22;19.50;99.90
7842;DHT22;3966;51.052;13.820;2023-07-13T01:54:48;19.50;99.90
7842;DHT22;3966;51.052;13.820;2023-07-13T01:57:14;19.40;99.90
7842;DHT22;3966;51.052;13.820;2023-07-13T01:59:39;19.20;99.90
7842;DHT22;3966;51.052;13.820;2023-07-13T02:02:06;19.20;99.90
7842;DHT22;3966;51.052;13.820;2023-07-13T02:04:32;19.10;99.90
7842;DHT22;3966;51.052;13.820;2023-07-13T02:06:57;19.00;99.90
7842;DHT22;3966;51.052;13.820;2023-07-13T02:09:23;19.00;99.90
7842;DHT22;3966;51.052;13.820;2023-07-13T02:11:49;19.10;99.90
7842;DHT22;3966;51.052;13.820;2023-07-13T02:14:14;19.10;99.90
7842;DHT22;3966;51.052;13.820;2023-07-13T02:16:41;19.20;99.90
7842;DHT22;3966;51.052;13.820;2023-07-13T02:19:07;19.10;99.90
7842;DHT22;3966;51.052;13.820;2023-07-13T02:21:32;19.10;99.90
7842;DHT22;3966;51.052;13.820;2023-07-13T02:23:58;19.10;99.90
7842;DHT22;3966;51.052;13.820;2023-07-13T02:26:25;19.00;99.90
7842;DHT22;3966;51.052;13.820;2023-07-13T02:28:52;19.00;99.90
7842;DHT22;3966;51.052;13.820;2023-07-13T02:31:18;19.00;99.90
7842;DHT22;3966;51.052;13.820;2023-07-13T02:33:43;19.00;99.90
7842;DHT22;3966;51.052;13.820;2023-07-13T02:36:09;19.00;99.90
7842;DHT22;3966;51.052;13.820;2023-07-13T02:38:36;19.00;99.90
7842;DHT22;3966;51.052;13.820;2023-07-13T02:41:06;19.00;99.90
7842;DHT22;3966;51.052;13.820;2023-07-13T02:43:32;19.00;99.90
7842;DHT22;3966;51.052;13.820;2023-07-13T02:45:59;18.90;99.90
7842;DHT22;3966;51.052;13.820;2023-07-13T02:48:29;18.90;99.90
7842;DHT22;3966;51.052;13.820;2023-07-13T02:50:55;19.00;99.90
7842;DHT22;3966;51.052;13.820;2023-07-13T02:53:21;18.80;99.90
7842;DHT22;3966;51.052;13.820;2023-07-13T02:55:46;18.80;99.90
7842;DHT22;3966;51.052;13.820;2023-07-13T02:58:13;18.80;99.90
7842;DHT22;3966;51.052;13.820;2023-07-13T03:00:42;18.80;99.90
7842;DHT22;3966;51.052;13.820;2023-07-13T03:03:09;18.80;99.90
7842;DHT22;3966;51.052;13.820;2023-07-13T03:05:36;18.70;99.90
7842;DHT22;3966;51.052;13.820;2023-07-13T03:08:02;18.70;99.90
7842;DHT22;3966;51.052;13.820;2023-07-13T03:10:29;18.70;99.90
7842;DHT22;3966;51.052;13.820;2023-07-13T03:12:54;18.70;99.90
7842;DHT22;3966;51.052;13.820;2023-07-13T03:15:20;18.80;99.90
7842;DHT22;3966;51.052;13.820;2023-07-13T03:17:46;18.80;99.90
7842;DHT22;3966;51.052;13.820;2023-07-13T03:20:12;18.60;99.90
7842;DHT22;3966;51.052;13.820;2023-07-13T03:22:38;18.60;99.90
7842;DHT22;3966;51.052;13.820;2023-07-13T03:25:04;18.60;99.90
7842;DHT22;3966;51.052;13.820;2023-07-13T03:27:30;18.60;99.90
7842;DHT22;3966;51.052;13.820;2023-07-13T03:29:55;18.60;99.90
7842;DHT22;3966;51.052;13.820;2023-07-13T03:32:21;18.60;99.90
7842;DHT22;3966;51.052;13.820;2023-07-13T03:34:47;18.70;99.90
7842;DHT22;3966;51.052;13.820;2023-07-13T03:37:12;18.60;99.90
7842;DHT22;3966;51.052;13.820;2023-07-13T03:39:38;18.50;99.90
7842;DHT22;3966;51.052;13.820;2023-07-13T03:42:04;18.50;99.90
7842;DHT22;3966;51.052;13.820;2023-07-13T03:44:29;18.40;99.90
7842;DHT22;3966;51.052;13.820;2023-07-13T03:46:55;18.50;99.90
7842;DHT22;3966;51.052;13.820;2023-07-13T03:49:21;18.60;99.90
7842;DHT22;3966;51.052;13.820;2023-07-13T03:51:46;18.70;99.90
7842;DHT22;3966;51.052;13.820;2023-07-13T03:54:12;18.70;99.90
7842;DHT22;3966;51.052;13.820;2023-07-13T03:56:37;18.70;99.90
7842;DHT22;3966;51.052;13.820;2023-07-13T03:59:03;18.60;99.90
7842;DHT22;3966;51.052;13.820;2023-07-13T04:01:29;18.60;99.90
7842;DHT22;3966;51.052;13.820;2023-07-13T04:03:54;18.70;99.90
7842;DHT22;3966;51.052;13.820;2023-07-13T04:06:23;18.70;99.90
7842;DHT22;3966;51.052;13.820;2023-07-13T04:08:58;18.70;99.90
7842;DHT22;3966;51.052;13.820;2023-07-13T04:11:26;18.60;99.90
7842;DHT22;3966;51.052;13.820;2023-07-13T04:13:52;18.70;99.90
7842;DHT22;3966;51.052;13.820;2023-07-13T04:16:19;18.80;99.90
7842;DHT22;3966;51.052;13.820;2023-07-13T04:18:45;18.70;99.90
7842;DHT22;3966;51.052;13.820;2023-07-13T04:21:12;18.70;99.90
7842;DHT22;3966;51.052;13.820;2023-07-13T04:23:38;18.70;99.90
7842;DHT22;3966;51.052;13.820;2023-07-13T04:26:04;18.70;99.90
7842;DHT22;3966;51.052;13.820;2023-07-13T04:28:30;18.80;99.90
7842;DHT22;3966;51.052;13.820;2023-07-13T04:30:56;18.90;99.90
7842;DHT22;3966;51.052;13.820;2023-07-13T04:33:22;18.80;99.90
7842;DHT22;3966;51.052;13.820;2023-07-13T04:35:52;18.90;99.90
7842;DHT22;3966;51.052;13.820;2023-07-13T04:38:20;18.90;99.90
7842;DHT22;3966;51.052;13.820;2023-07-13T04:40:46;19.00;99.90
7842;DHT22;3966;51.052;13.820;2023-07-13T04:43:11;19.00;99.90
7842;DHT22;3966;51.052;13.820;2023-07-13T04:45:37;19.00;99.90
7842;DHT22;3966;51.052;13.820;2023-07-13T04:48:03;19.00;99.90
7842;DHT22;3966;51.052;13.820;2023-07-13T04:50:29;19.10;99.90
7842;DHT22;3966;51.052;13.820;2023-07-13T04:52:54;19.20;99.90
7842;DHT22;3966;51.052;13.820;2023-07-13T04:55:20;19.00;99.90
7842;DHT22;3966;51.052;13.820;2023-07-13T04:57:47;19.00;99.90
7842;DHT22;3966;51.052;13.820;2023-07-13T05:00:13;18.90;99.90
7842;DHT22;3966;51.052;13.820;2023-07-13T05:02:44;19.00;99.90
7842;DHT22;3966;51.052;13.820;2023-07-13T05:05:10;19.00;99.90
7842;DHT22;3966;51.052;13.820;2023-07-13T05:07:35;18.90;99.90
7842;DHT22;3966;51.052;13.820;2023-07-13T05:10:02;18.90;99.90
7842;DHT22;3966;51.052;13.820;2023-07-13T05:12:29;19.10;99.90
7842;DHT22;3966;51.052;13.820;2023-07-13T05:14:55;19.10;99.90
7842;DHT22;3966;51.052;13.820;2023-07-13T05:17:20;19.20;99.90
7842;DHT22;3966;51.052;13.820;2023-07-13T05:19:46;19.20;99.90
7842;DHT22;3966;51.052;13.820;2023-07-13T05:22:12;19.20;99.90
7842;DHT22;3966;51.052;13.820;2023-07-13T05:24:38;19.10;99.90
7842;DHT22;3966;51.052;13.820;2023-07-13T05:27:03;19.20;99.90
7842;DHT22;3966;51.052;13.820;2023-07-13T05:29:29;19.30;99.90
7842;DHT22;3966;51.052;13.820;2023-07-13T05:31:55;19.40;99.90
7842;DHT22;3966;51.052;13.820;2023-07-13T05:34:21;19.70;99.90
7842;DHT22;3966;51.052;13.820;2023-07-13T05:36:46;19.90;99.90
7842;DHT22;3966;51.052;13.820;2023-07-13T05:39:12;20.00;99.90
7842;DHT22;3966;51.052;13.820;2023-07-13T05:41:38;20.10;99.90
7842;DHT22;3966;51.052;13.820;2023-07-13T05:44:03;20.10;99.90
7842;DHT22;3966;51.052;13.820;2023-07-13T05:46:29;20.10;99.90
7842;DHT22;3966;51.052;13.820;2023-07-13T05:48:56;20.00;99.90
7842;DHT22;3966;51.052;13.820;2023-07-13T05:51:21;19.90;99.90
7842;DHT22;3966;51.052;13.820;2023-07-13T05:53:47;19.90;99.90
7842;DHT22;3966;51.052;13.820;2023-07-13T05:56:13;19.90;99.90
7842;DHT22;3966;51.052;13.820;2023-07-13T05:58:38;19.90;99.90
7842;DHT22;3966;51.052;13.820;2023-07-13T06:01:08;20.00;99.90
7842;DHT22;3966;51.052;13.820;2023-07-13T06:03:34;19.90;99.90
7842;DHT22;3966;51.052;13.820;2023-07-13T06:06:00;20.00;99.90
7842;DHT22;3966;51.052;13.820;2023-07-13T06:08:26;20.00;99.90
7842;DHT22;3966;51.052;13.820;2023-07-13T06:10:52;20.00;99.90
7842;DHT22;3966;51.052;13.820;2023-07-13T06:13:18;19.90;99.90
7842;DHT22;3966;51.052;13.820;2023-07-13T06:15:51;19.90;99.90
7842;DHT22;3966;51.052;13.820;2023-07-13T06:18:16;20.00;99.90
7842;DHT22;3966;51.052;13.820;2023-07-13T06:20:42;20.00;99.90
7842;DHT22;3966;51.052;13.820;2023-07-13T06:23:07;20.10;99.90
7842;DHT22;3966;51.052;13.820;2023-07-13T06:25:33;20.30;99.90
7842;DHT22;3966;51.052;13.820;2023-07-13T06:27:59;20.50;99.90
7842;DHT22;3966;51.052;13.820;2023-07-13T06:30:24;20.60;99.90
7842;DHT22;3966;51.052;13.820;2023-07-13T06:32:50;20.80;99.90
7842;DHT22;3966;51.052;13.820;2023-07-13T06:35:16;20.80;99.90
7842;DHT22;3966;51.052;13.820;2023-07-13T06:37:41;20.70;99.90
7842;DHT22;3966;51.052;13.820;2023-07-13T06:40:07;20.60;99.90
7842;DHT22;3966;51.052;13.820;2023-07-13T06:42:33;20.60;99.90
7842;DHT22;3966;51.052;13.820;2023-07-13T06:44:59;20.80;99.90
7842;DHT22;3966;51.052;13.820;2023-07-13T06:47:24;21.00;99.90
7842;DHT22;3966;51.052;13.820;2023-07-13T06:49:50;20.90;99.90
7842;DHT22;3966;51.052;13.820;2023-07-13T06:52:16;20.90;99.90
7842;DHT22;3966;51.052;13.820;2023-07-13T06:54:41;20.90;99.90
7842;DHT22;3966;51.052;13.820;2023-07-13T06:57:07;20.90;99.90
7842;DHT22;3966;51.052;13.820;2023-07-13T06:59:32;21.00;99.90
7842;DHT22;3966;51.052;13.820;2023-07-13T07:01:58;21.30;99.90
7842;DHT22;3966;51.052;13.820;2023-07-13T07:04:24;21.30;99.90
7842;DHT22;3966;51.052;13.820;2023-07-13T07:06:49;21.30;99.90
7842;DHT22;3966;51.052;13.820;2023-07-13T07:09:15;21.40;99.90
7842;DHT22;3966;51.052;13.820;2023-07-13T07:11:41;21.40;99.90
7842;DHT22;3966;51.052;13.820;2023-07-13T07:14:08;21.50;99.90
7842;DHT22;3966;51.052;13.820;2023-07-13T07:16:33;21.50;99.90
7842;DHT22;3966;51.052;13.820;2023-07-13T07:18:59;21.40;99.90
7842;DHT22;3966;51.052;13.820;2023-07-13T07:21:24;21.50;99.90
7842;DHT22;3966;51.052;13.820;2023-07-13T07:23:51;21.50;99.90
7842;DHT22;3966;51.052;13.820;2023-07-13T07:26:17;21.70;99.90
7842;DHT22;3966;51.052;13.820;2023-07-13T07:28:43;21.80;99.90
7842;DHT22;3966;51.052;13.820;2023-07-13T07:31:09;21.80;99.90
7842;DHT22;3966;51.052;13.820;2023-07-13T07:33:35;21.80;99.90
7842;DHT22;3966;51.052;13.820;2023-07-13T07:36:01;21.80;99.90
7842;DHT22;3966;51.052;13.820;2023-07-13T07:38:26;21.70;99.90
7842;DHT22;3966;51.052;13.820;2023-07-13T07:40:52;21.80;99.90
7842;DHT22;3966;51.052;13.820;2023-07-13T07:43:18;22.00;99.90
7842;DHT22;3966;51.052;13.820;2023-07-13T07:45:45;22.20;99.90
7842;DHT22;3966;51.052;13.820;2023-07-13T07:48:11;22.20;99.90
7842;DHT22;3966;51.052;13.820;2023-07-13T07:50:37;22.30;99.90
7842;DHT22;3966;51.052;13.820;2023-07-13T07:53:05;22.40;99.90
7842;DHT22;3966;51.052;13.820;2023-07-13T07:55:34;22.70;99.90
7842;DHT22;3966;51.052;13.820;2023-07-13T07:58:00;22.80;99.90
7842;DHT22;3966;51.052;13.820;2023-07-13T08:00:26;22.90;99.90
7842;DHT22;3966;51.052;13.820;2023-07-13T08:02:52;23.10;99.90
7842;DHT22;3966;51.052;13.820;2023-07-13T08:05:18;23.20;99.90
7842;DHT22;3966;51.052;13.820;2023-07-13T08:07:43;23.20;99.90
7842;DHT22;3966;51.052;13.820;2023-07-13T08:10:10;23.00;99.90
7842;DHT22;3966;51.052;13.820;2023-07-13T08:12:37;23.20;99.90
7842;DHT22;3966;51.052;13.820;2023-07-13T08:15:03;23.10;99.90
7842;DHT22;3966;51.052;13.820;2023-07-13T08:17:29;23.10;99.90
7842;DHT22;3966;51.052;13.820;2023-07-13T08:19:55;23.10;99.90
7842;DHT22;3966;51.052;13.820;2023-07-13T08:22:21;23.10;99.90
7842;DHT22;3966;51.052;13.820;2023-07-13T08:24:47;23.10;99.90
7842;DHT22;3966;51.052;13.820;2023-07-13T08:27:20;23.10;99.90
7842;DHT22;3966;51.052;13.820;2023-07-13T08:29:47;23.00;99.90
7842;DHT22;3966;51.052;13.820;2023-07-13T08:32:13;23.20;99.90
7842;DHT22;3966;51.052;13.820;2023-07-13T08:34:39;23.40;99.90
7842;DHT22;3966;51.052;13.820;2023-07-13T08:37:06;23.40;99.90
7842;DHT22;3966;51.052;13.820;2023-07-13T08:39:32;23.40;99.90
7842;DHT22;3966;51.052;13.820;2023-07-13T08:42:16;23.50;99.90
7842;DHT22;3966;51.052;13.820;2023-07-13T08:45:30;23.60;99.90
7842;DHT22;3966;51.052;13.820;2023-07-13T08:47:59;23.90;99.90
7842;DHT22;3966;51.052;13.820;2023-07-13T08:50:35;23.90;99.90
7842;DHT22;3966;51.052;13.820;2023-07-13T08:53:03;23.90;99.90
7842;DHT22;3966;51.052;13.820;2023-07-13T08:55:33;23.90;99.90
7842;DHT22;3966;51.052;13.820;2023-07-13T08:58:13;24.00;99.90
7842;DHT22;3966;51.052;13.820;2023-07-13T09:00:56;24.10;99.90
7842;DHT22;3966;51.052;13.820;2023-07-13T09:03:28;24.50;99.90
7842;DHT22;3966;51.052;13.820;2023-07-13T09:05:59;24.40;98.60
7842;DHT22;3966;51.052;13.820;2023-07-13T09:11:21;24.10;99.90
7842;DHT22;3966;51.052;13.820;2023-07-13T09:14:26;24.00;99.90
7842;DHT22;3966;51.052;13.820;2023-07-13T09:16:58;24.10;99.70
7842;DHT22;3966;51.052;13.820;2023-07-13T09:19:28;24.20;99.10
7842;DHT22;3966;51.052;13.820;2023-07-13T09:21:56;24.20;97.10
7842;DHT22;3966;51.052;13.820;2023-07-13T09:24:39;24.20;96.80
7842;DHT22;3966;51.052;13.820;2023-07-13T09:27:24;24.10;97.40
7842;DHT22;3966;51.052;13.820;2023-07-13T09:32:39;24.30;95.30
7842;DHT22;3966;51.052;13.820;2023-07-13T09:35:12;24.30;94.40
7842;DHT22;3966;51.052;13.820;2023-07-13T09:37:39;24.50;94.10
7842;DHT22;3966;51.052;13.820;2023-07-13T09:40:17;24.40;94.50
7842;DHT22;3966;51.052;13.820;2023-07-13T09:42:45;24.20;94.80
7842;DHT22;3966;51.052;13.820;2023-07-13T09:45:26;24.30;96.40
7842;DHT22;3966;51.052;13.820;2023-07-13T09:47:59;24.30;95.50
7842;DHT22;3966;51.052;13.820;2023-07-13T09:50:25;24.10;95.30
7842;DHT22;3966;51.052;13.820;2023-07-13T09:52:50;24.20;95.50
7842;DHT22;3966;51.052;13.820;2023-07-13T09:55:25;24.20;96.10
7842;DHT22;3966;51.052;13.820;2023-07-13T09:57:51;24.30;97.20
7842;DHT22;3966;51.052;13.820;2023-07-13T10:00:27;24.40;96.70
7842;DHT22;3966;51.052;13.820;2023-07-13T10:03:00;24.50;95.60
7842;DHT22;3966;51.052;13.820;2023-07-13T10:05:25;24.40;96.60
7842;DHT22;3966;51.052;13.820;2023-07-13T10:07:51;24.40;95.50
7842;DHT22;3966;51.052;13.820;2023-07-13T10:10:22;24.30;95.20
7842;DHT22;3966;51.052;13.820;2023-07-13T10:12:49;24.20;95.40
7842;DHT22;3966;51.052;13.820;2023-07-13T10:15:21;24.40;94.60
7842;DHT22;3966;51.052;13.820;2023-07-13T10:17:48;24.70;94.90
7842;DHT22;3966;51.052;13.820;2023-07-13T10:20:14;24.80;95.10
7842;DHT22;3966;51.052;13.820;2023-07-13T10:23:00;25.00;94.90
7842;DHT22;3966;51.052;13.820;2023-07-13T10:25:32;25.10;94.50
7842;DHT22;3966;51.052;13.820;2023-07-13T10:30:53;25.30;95.20
7842;DHT22;3966;51.052;13.820;2023-07-13T10:33:19;25.10;93.50
7842;DHT22;3966;51.052;13.820;2023-07-13T10:35:47;25.00;92.70
7842;DHT22;3966;51.052;13.820;2023-07-13T10:38:20;25.20;91.70
7842;DHT22;3966;51.052;13.820;2023-07-13T10:41:10;25.40;90.50
7842;DHT22;3966;51.052;13.820;2023-07-13T10:46:06;25.20;91.00
7842;DHT22;3966;51.052;13.820;2023-07-13T10:48:34;25.30;92.50
7842;DHT22;3966;51.052;13.820;2023-07-13T10:51:04;25.60;91.60
7842;DHT22;3966;51.052;13.820;2023-07-13T10:53:33;25.50;89.90
7842;DHT22;3966;51.052;13.820;2023-07-13T10:58:43;25.80;90.30
7842;DHT22;3966;51.052;13.820;2023-07-13T11:01:15;25.90;88.90
7842;DHT22;3966;51.052;13.820;2023-07-13T11:03:49;25.70;90.40
7842;DHT22;3966;51.052;13.820;2023-07-13T11:08:57;25.40;87.00
7842;DHT22;3966;51.052;13.820;2023-07-13T11:11:33;25.50;90.00
7842;DHT22;3966;51.052;13.820;2023-07-13T11:14:01;25.70;86.10
7842;DHT22;3966;51.052;13.820;2023-07-13T11:16:37;25.60;85.50
7842;DHT22;3966;51.052;13.820;2023-07-13T11:21:29;25.90;83.00
7842;DHT22;3966;51.052;13.820;2023-07-13T11:24:15;26.20;84.80
7842;DHT22;3966;51.052;13.820;2023-07-13T11:26:52;26.10;80.80
7842;DHT22;3966;51.052;13.820;2023-07-13T11:31:55;26.00;79.80
7842;DHT22;3966;51.052;13.820;2023-07-13T11:34:29;26.10;80.60
7842;DHT22;3966;51.052;13.820;2023-07-13T11:36:57;25.70;82.00
7842;DHT22;3966;51.052;13.820;2023-07-13T11:39:33;26.00;84.90
7842;DHT22;3966;51.052;13.820;2023-07-13T11:42:03;26.40;84.80
7842;DHT22;3966;51.052;13.820;2023-07-13T11:44:32;26.60;84.00
7842;DHT22;3966;51.052;13.820;2023-07-13T11:47:01;26.30;83.10
7842;DHT22;3966;51.052;13.820;2023-07-13T11:49:43;26.70;83.00
7842;DHT22;3966;51.052;13.820;2023-07-13T11:52:17;26.50;81.10
7842;DHT22;3966;51.052;13.820;2023-07-13T11:59:51;26.90;79.90
7842;DHT22;3966;51.052;13.820;2023-07-13T12:02:37;26.40;80.80
7842;DHT22;3966;51.052;13.820;2023-07-13T12:05:04;26.80;80.30
7842;DHT22;3966;51.052;13.820;2023-07-13T12:07:32;26.40;80.40
7842;DHT22;3966;51.052;13.820;2023-07-13T12:10:19;26.60;80.40
7842;DHT22;3966;51.052;13.820;2023-07-13T12:12:54;26.70;79.50
7842;DHT22;3966;51.052;13.820;2023-07-13T12:15:22;26.80;78.60
7842;DHT22;3966;51.052;13.820;2023-07-13T12:17:48;26.60;78.50
7842;DHT22;3966;51.052;13.820;2023-07-13T12:20:26;26.80;78.90
7842;DHT22;3966;51.052;13.820;2023-07-13T12:22:52;26.60;80.20
7842;DHT22;3966;51.052;13.820;2023-07-13T12:25:19;26.60;77.80
7842;DHT22;3966;51.052;13.820;2023-07-13T12:27:49;26.80;78.60
7842;DHT22;3966;51.052;13.820;2023-07-13T12:32:58;27.40;75.50
7842;DHT22;3966;51.052;13.820;2023-07-13T12:35:24;27.20;75.10
7842;DHT22;3966;51.052;13.820;2023-07-13T12:37:51;27.50;72.80
7842;DHT22;3966;51.052;13.820;2023-07-13T12:40:20;27.40;72.00
7842;DHT22;3966;51.052;13.820;2023-07-13T12:42:49;26.90;73.70
7842;DHT22;3966;51.052;13.820;2023-07-13T12:45:21;27.00;74.70
7842;DHT22;3966;51.052;13.820;2023-07-13T12:47:54;27.00;73.60
7842;DHT22;3966;51.052;13.820;2023-07-13T12:50:22;26.90;76.30
7842;DHT22;3966;51.052;13.820;2023-07-13T12:53:01;27.00;76.70
7842;DHT22;3966;51.052;13.820;2023-07-13T12:55:29;26.70;76.00
7842;DHT22;3966;51.052;13.820;2023-07-13T12:57:59;26.80;77.10
7842;DHT22;3966;51.052;13.820;2023-07-13T13:00:33;26.80;76.60
7842;DHT22;3966;51.052;13.820;2023-07-13T13:03:22;26.70;76.20
7842;DHT22;3966;51.052;13.820;2023-07-13T13:05:57;26.60;72.90
7842;DHT22;3966;51.052;13.820;2023-07-13T13:08:24;26.80;75.70
7842;DHT22;3966;51.052;13.820;2023-07-13T13:10:49;27.00;74.20
7842;DHT22;3966;51.052;13.820;2023-07-13T13:13:15;27.20;70.90
7842;DHT22;3966;51.052;13.820;2023-07-13T13:15:41;27.20;69.70
7842;DHT22;3966;51.052;13.820;2023-07-13T13:18:20;27.30;71.30
7842;DHT22;3966;51.052;13.820;2023-07-13T13:20:48;27.70;69.10
7842;DHT22;3966;51.052;13.820;2023-07-13T13:23:19;28.40;68.30
7842;DHT22;3966;51.052;13.820;2023-07-13T13:25:46;27.80;68.00
7842;DHT22;3966;51.052;13.820;2023-07-13T13:28:15;27.90;68.50
7842;DHT22;3966;51.052;13.820;2023-07-13T13:30:42;28.00;66.70
7842;DHT22;3966;51.052;13.820;2023-07-13T13:33:13;28.30;67.70
7842;DHT22;3966;51.052;13.820;2023-07-13T13:35:40;28.00;65.60
7842;DHT22;3966;51.052;13.820;2023-07-13T13:38:13;27.80;66.50
7842;DHT22;3966;51.052;13.820;2023-07-13T13:40:41;28.00;66.90
7842;DHT22;3966;51.052;13.820;2023-07-13T13:43:22;28.00;68.10
7842;DHT22;3966;51.052;13.820;2023-07-13T13:45:52;27.80;67.20
7842;DHT22;3966;51.052;13.820;2023-07-13T13:48:20;27.90;66.10
7842;DHT22;3966;51.052;13.820;2023-07-13T13:50:48;28.20;66.40
7842;DHT22;3966;51.052;13.820;2023-07-13T13:53:14;28.90;65.90
7842;DHT22;3966;51.052;13.820;2023-07-13T13:55:40;29.10;64.10
7842;DHT22;3966;51.052;13.820;2023-07-13T13:58:08;29.00;61.70
7842;DHT22;3966;51.052;13.820;2023-07-13T14:00:34;27.80;62.80
7842;DHT22;3966;51.052;13.820;2023-07-13T14:03:00;27.60;63.90
7842;DHT22;3966;51.052;13.820;2023-07-13T14:05:26;28.10;65.70
7842;DHT22;3966;51.052;13.820;2023-07-13T14:07:53;28.00;64.10
7842;DHT22;3966;51.052;13.820;2023-07-13T14:10:20;28.10;63.80
7842;DHT22;3966;51.052;13.820;2023-07-13T14:12:52;27.80;64.50
7842;DHT22;3966;51.052;13.820;2023-07-13T14:15:24;27.90;65.40
7842;DHT22;3966;51.052;13.820;2023-07-13T14:17:50;28.10;63.40
7842;DHT22;3966;51.052;13.820;2023-07-13T14:20:18;28.30;64.00
7842;DHT22;3966;51.052;13.820;2023-07-13T14:22:45;28.80;62.50
7842;DHT22;3966;51.052;13.820;2023-07-13T14:25:13;28.50;62.30
7842;DHT22;3966;51.052;13.820;2023-07-13T14:27:40;29.20;62.10
7842;DHT22;3966;51.052;13.820;2023-07-13T14:30:14;29.00;61.80
7842;DHT22;3966;51.052;13.820;2023-07-13T14:32:40;28.50;61.80
7842;DHT22;3966;51.052;13.820;2023-07-13T14:35:07;29.60;62.40
7842;DHT22;3966;51.052;13.820;2023-07-13T14:37:33;29.10;60.40
7842;DHT22;3966;51.052;13.820;2023-07-13T14:39:59;28.90;61.40
7842;DHT22;3966;51.052;13.820;2023-07-13T14:42:25;29.10;61.30
7842;DHT22;3966;51.052;13.820;2023-07-13T14:44:51;29.00;60.00
7842;DHT22;3966;51.052;13.820;2023-07-13T14:47:18;29.00;61.50
7842;DHT22;3966;51.052;13.820;2023-07-13T14:49:44;29.60;61.60
7842;DHT22;3966;51.052;13.820;2023-07-13T14:52:15;29.70;61.60
7842;DHT22;3966;51.052;13.820;2023-07-13T14:54:42;30.10;60.30
7842;DHT22;3966;51.052;13.820;2023-07-13T14:57:13;30.00;61.20
7842;DHT22;3966;51.052;13.820;2023-07-13T14:59:40;30.70;59.80
7842;DHT22;3966;51.052;13.820;2023-07-13T15:02:28;29.70;58.50
7842;DHT22;3966;51.052;13.820;2023-07-13T15:04:55;29.40;59.20
7842;DHT22;3966;51.052;13.820;2023-07-13T15:07:21;29.90;60.30
7842;DHT22;3966;51.052;13.820;2023-07-13T15:09:48;29.40;58.10
7842;DHT22;3966;51.052;13.820;2023-07-13T15:12:14;28.80;58.90
7842;DHT22;3966;51.052;13.820;2023-07-13T15:14:40;28.70;59.30
7842;DHT22;3966;51.052;13.820;2023-07-13T15:19:46;29.20;58.70
7842;DHT22;3966;51.052;13.820;2023-07-13T15:22:12;29.00;58.00
7842;DHT22;3966;51.052;13.820;2023-07-13T15:24:37;29.70;58.80
7842;DHT22;3966;51.052;13.820;2023-07-13T15:27:07;29.80;56.30
7842;DHT22;3966;51.052;13.820;2023-07-13T15:29:34;30.40;56.10
7842;DHT22;3966;51.052;13.820;2023-07-13T15:31:59;29.60;56.70
7842;DHT22;3966;51.052;13.820;2023-07-13T15:34:26;29.90;57.00
7842;DHT22;3966;51.052;13.820;2023-07-13T15:36:51;29.90;56.50
7842;DHT22;3966;51.052;13.820;2023-07-13T15:39:17;30.10;56.40
7842;DHT22;3966;51.052;13.820;2023-07-13T15:41:44;29.80;55.00
7842;DHT22;3966;51.052;13.820;2023-07-13T15:44:28;30.00;55.40
7842;DHT22;3966;51.052;13.820;2023-07-13T15:46:54;30.00;55.20
7842;DHT22;3966;51.052;13.820;2023-07-13T15:49:20;29.70;55.50
7842;DHT22;3966;51.052;13.820;2023-07-13T15:51:47;29.90;54.60
7842;DHT22;3966;51.052;13.820;2023-07-13T15:54:15;29.80;54.20
7842;DHT22;3966;51.052;13.820;2023-07-13T15:56:41;29.80;55.10
7842;DHT22;3966;51.052;13.820;2023-07-13T15:59:12;29.70;54.50
7842;DHT22;3966;51.052;13.820;2023-07-13T16:01:38;30.00;55.10
7842;DHT22;3966;51.052;13.820;2023-07-13T16:04:04;30.40;53.10
7842;DHT22;3966;51.052;13.820;2023-07-13T16:06:36;29.40;53.40
7842;DHT22;3966;51.052;13.820;2023-07-13T16:09:03;29.60;54.60
7842;DHT22;3966;51.052;13.820;2023-07-13T16:11:36;30.20;53.40
7842;DHT22;3966;51.052;13.820;2023-07-13T16:14:02;30.20;52.50
7842;DHT22;3966;51.052;13.820;2023-07-13T16:16:33;29.80;52.40
7842;DHT22;3966;51.052;13.820;2023-07-13T16:19:04;29.50;52.90
7842;DHT22;3966;51.052;13.820;2023-07-13T16:21:33;29.90;53.80
7842;DHT22;3966;51.052;13.820;2023-07-13T16:24:00;30.20;52.10
7842;DHT22;3966;51.052;13.820;2023-07-13T16:29:20;29.30;52.30
7842;DHT22;3966;51.052;13.820;2023-07-13T16:32:02;29.70;53.30